sensor_id;sensor_type;location;lat;lon;timestamp;P1;durP1;ratioP1;P2;durP2;ratioP2
12367;SDS011;6248;49.812;6.620;2023-02-28T00:00:10;1.97;;;0.87;;
12367;SDS011;6248;49.812;6.620;2023-02-28T00:02:38;1.43;;;1.20;;
12367;SDS011;6248;49.812;6.620;2023-02-28T00:05:06;1.10;;;1.00;;
12367;SDS011;6248;49.812;6.620;2023-02-28T00:07:33;1.03;;;0.97;;
12367;SDS011;6248;49.812;6.620;2023-02-28T00:10:01;1.00;;;0.90;;
12367;SDS011;6248;49.812;6.620;2023-02-28T00:12:28;1.63;;;1.10;;
12367;SDS011;6248;49.812;6.620;2023-02-28T00:14:56;1.00;;;0.97;;
12367;SDS011;6248;49.812;6.620;2023-02-28T00:17:23;1.10;;;1.00;;
12367;SDS011;6248;49.812;6.620;2023-02-28T00:19:51;1.20;;;0.80;;
12367;SDS011;6248;49.812;6.620;2023-02-28T00:22:18;2.13;;;0.90;;
12367;SDS011;6248;49.812;6.620;2023-02-28T00:24:46;0.70;;;0.70;;
12367;SDS011;6248;49.812;6.620;2023-02-28T00:27:13;1.63;;;0.90;;
12367;SDS011;6248;49.812;6.620;2023-02-28T00:29:41;2.03;;;1.00;;
12367;SDS011;6248;49.812;6.620;2023-02-28T00:32:09;1.00;;;1.00;;
12367;SDS011;6248;49.812;6.620;2023-02-28T00:34:36;1.33;;;1.10;;
12367;SDS011;6248;49.812;6.620;2023-02-28T00:37:04;1.53;;;1.10;;
12367;SDS011;6248;49.812;6.620;2023-02-28T00:39:33;1.13;;;1.03;;
12367;SDS011;6248;49.812;6.620;2023-02-28T00:42:00;1.30;;;1.20;;
12367;SDS011;6248;49.812;6.620;2023-02-28T00:44:27;1.63;;;1.10;;
12367;SDS011;6248;49.812;6.620;2023-02-28T00:46:54;1.47;;;1.07;;
12367;SDS011;6248;49.812;6.620;2023-02-28T00:49:23;1.23;;;1.03;;
12367;SDS011;6248;49.812;6.620;2023-02-28T00:51:50;1.43;;;1.13;;
12367;SDS011;6248;49.812;6.620;2023-02-28T00:54:17;1.80;;;1.20;;
12367;SDS011;6248;49.812;6.620;2023-02-28T00:56:45;1.20;;;1.10;;
12367;SDS011;6248;49.812;6.620;2023-02-28T00:59:12;1.27;;;0.90;;
12367;SDS011;6248;49.812;6.620;2023-02-28T01:01:39;2.13;;;1.10;;
12367;SDS011;6248;49.812;6.620;2023-02-28T01:04:06;1.17;;;1.07;;
12367;SDS011;6248;49.812;6.620;2023-02-28T01:06:35;1.83;;;1.23;;
12367;SDS011;6248;49.812;6.620;2023-02-28T01:09:02;1.50;;;1.17;;
12367;SDS011;6248;49.812;6.620;2023-02-28T01:11:30;1.27;;;1.00;;
12367;SDS011;6248;49.812;6.620;2023-02-28T01:13:57;1.03;;;0.90;;
12367;SDS011;6248;49.812;6.620;2023-02-28T01:16:24;1.07;;;1.03;;
12367;SDS011;6248;49.812;6.620;2023-02-28T01:18:52;1.90;;;1.20;;
12367;SDS011;6248;49.812;6.620;2023-02-28T01:21:19;1.20;;;1.10;;
12367;SDS011;6248;49.812;6.620;2023-02-28T01:23:48;1.67;;;1.17;;
12367;SDS011;6248;49.812;6.620;2023-02-28T01:26:16;1.20;;;0.97;;
12367;SDS011;6248;49.812;6.620;2023-02-28T01:28:44;1.00;;;1.00;;
12367;SDS011;6248;49.812;6.620;2023-02-28T01:31:11;1.27;;;0.97;;
12367;SDS011;6248;49.812;6.620;2023-02-28T01:33:39;1.37;;;1.00;;
12367;SDS011;6248;49.812;6.620;2023-02-28T01:36:07;1.20;;;1.10;;
12367;SDS011;6248;49.812;6.620;2023-02-28T01:38:35;1.43;;;1.10;;
12367;SDS011;6248;49.812;6.620;2023-02-28T01:41:04;1.10;;;1.00;;
12367;SDS011;6248;49.812;6.620;2023-02-28T01:43:32;1.30;;;1.10;;
12367;SDS011;6248;49.812;6.620;2023-02-28T01:45:59;2.00;;;1.33;;
12367;SDS011;6248;49.812;6.620;2023-02-28T01:48:27;3.00;;;1.87;;
12367;SDS011;6248;49.812;6.620;2023-02-28T01:50:56;2.03;;;1.27;;
12367;SDS011;6248;49.812;6.620;2023-02-28T01:53:26;1.33;;;1.10;;
12367;SDS011;6248;49.812;6.620;2023-02-28T01:55:56;1.37;;;1.23;;
12367;SDS011;6248;49.812;6.620;2023-02-28T01:58:25;1.27;;;1.17;;
12367;SDS011;6248;49.812;6.620;2023-02-28T02:00:52;1.43;;;1.07;;
12367;SDS011;6248;49.812;6.620;2023-02-28T02:03:19;1.40;;;1.30;;
12367;SDS011;6248;49.812;6.620;2023-02-28T02:05:47;4.00;;;1.50;;
12367;SDS011;6248;49.812;6.620;2023-02-28T02:08:15;1.23;;;1.10;;
12367;SDS011;6248;49.812;6.620;2023-02-28T02:10:44;2.80;;;1.57;;
12367;SDS011;6248;49.812;6.620;2023-02-28T02:13:28;1.40;;;1.30;;
12367;SDS011;6248;49.812;6.620;2023-02-28T02:16:00;1.50;;;1.30;;
12367;SDS011;6248;49.812;6.620;2023-02-28T02:18:30;2.20;;;1.60;;
12367;SDS011;6248;49.812;6.620;2023-02-28T02:26:51;2.00;;;1.50;;
12367;SDS011;6248;49.812;6.620;2023-02-28T02:29:30;1.30;;;1.20;;
12367;SDS011;6248;49.812;6.620;2023-02-28T02:35:02;1.47;;;1.37;;
12367;SDS011;6248;49.812;6.620;2023-02-28T02:37:34;1.50;;;1.40;;
12367;SDS011;6248;49.812;6.620;2023-02-28T02:40:08;1.60;;;1.50;;
12367;SDS011;6248;49.812;6.620;2023-02-28T02:42:39;1.43;;;1.30;;
12367;SDS011;6248;49.812;6.620;2023-02-28T02:45:08;2.23;;;1.50;;
12367;SDS011;6248;49.812;6.620;2023-02-28T02:47:37;1.50;;;1.40;;
12367;SDS011;6248;49.812;6.620;2023-02-28T02:50:07;2.30;;;1.60;;
12367;SDS011;6248;49.812;6.620;2023-02-28T02:52:36;1.47;;;1.33;;
12367;SDS011;6248;49.812;6.620;2023-02-28T02:55:06;1.43;;;1.33;;
12367;SDS011;6248;49.812;6.620;2023-02-28T02:57:36;1.40;;;1.30;;
12367;SDS011;6248;49.812;6.620;2023-02-28T03:00:05;2.77;;;1.67;;
12367;SDS011;6248;49.812;6.620;2023-02-28T03:02:34;1.70;;;1.60;;
12367;SDS011;6248;49.812;6.620;2023-02-28T03:05:03;1.73;;;1.40;;
12367;SDS011;6248;49.812;6.620;2023-02-28T03:07:33;2.27;;;1.60;;
12367;SDS011;6248;49.812;6.620;2023-02-28T03:10:00;3.63;;;1.50;;
12367;SDS011;6248;49.812;6.620;2023-02-28T03:12:39;1.80;;;1.53;;
12367;SDS011;6248;49.812;6.620;2023-02-28T03:15:08;2.43;;;1.53;;
12367;SDS011;6248;49.812;6.620;2023-02-28T03:17:45;2.53;;;1.50;;
12367;SDS011;6248;49.812;6.620;2023-02-28T03:20:16;2.63;;;1.67;;
12367;SDS011;6248;49.812;6.620;2023-02-28T03:22:51;2.63;;;1.50;;
12367;SDS011;6248;49.812;6.620;2023-02-28T03:25:25;2.27;;;1.73;;
12367;SDS011;6248;49.812;6.620;2023-02-28T03:27:55;1.77;;;1.63;;
12367;SDS011;6248;49.812;6.620;2023-02-28T06:23:19;3.60;;;3.30;;
12367;SDS011;6248;49.812;6.620;2023-02-28T06:25:46;3.53;;;3.23;;
12367;SDS011;6248;49.812;6.620;2023-02-28T06:28:14;3.90;;;3.57;;
12367;SDS011;6248;49.812;6.620;2023-02-28T06:30:41;4.77;;;3.73;;
12367;SDS011;6248;49.812;6.620;2023-02-28T06:33:08;4.07;;;3.67;;
12367;SDS011;6248;49.812;6.620;2023-02-28T06:35:36;4.30;;;3.40;;
12367;SDS011;6248;49.812;6.620;2023-02-28T06:38:03;4.23;;;3.57;;
12367;SDS011;6248;49.812;6.620;2023-02-28T06:40:31;3.77;;;3.47;;
12367;SDS011;6248;49.812;6.620;2023-02-28T06:43:00;3.90;;;3.50;;
12367;SDS011;6248;49.812;6.620;2023-02-28T06:45:28;7.17;;;5.77;;
12367;SDS011;6248;49.812;6.620;2023-02-28T06:47:55;7.07;;;5.20;;
12367;SDS011;6248;49.812;6.620;2023-02-28T06:50:23;4.93;;;4.30;;
12367;SDS011;6248;49.812;6.620;2023-02-28T06:52:50;4.60;;;3.77;;
12367;SDS011;6248;49.812;6.620;2023-02-28T06:55:19;4.33;;;3.73;;
12367;SDS011;6248;49.812;6.620;2023-02-28T06:57:47;4.40;;;3.80;;
12367;SDS011;6248;49.812;6.620;2023-02-28T07:00:15;4.80;;;3.80;;
12367;SDS011;6248;49.812;6.620;2023-02-28T07:02:43;3.90;;;3.60;;
12367;SDS011;6248;49.812;6.620;2023-02-28T07:05:10;4.70;;;4.20;;
12367;SDS011;6248;49.812;6.620;2023-02-28T07:07:37;4.17;;;3.77;;
12367;SDS011;6248;49.812;6.620;2023-02-28T07:10:08;4.30;;;3.90;;
12367;SDS011;6248;49.812;6.620;2023-02-28T07:12:35;4.60;;;4.00;;
12367;SDS011;6248;49.812;6.620;2023-02-28T07:15:05;4.50;;;3.60;;
12367;SDS011;6248;49.812;6.620;2023-02-28T07:17:32;3.47;;;3.17;;
12367;SDS011;6248;49.812;6.620;2023-02-28T07:19:59;3.80;;;3.50;;
12367;SDS011;6248;49.812;6.620;2023-02-28T07:22:29;4.20;;;3.40;;
12367;SDS011;6248;49.812;6.620;2023-02-28T07:24:56;4.30;;;3.90;;
12367;SDS011;6248;49.812;6.620;2023-02-28T07:27:23;4.20;;;3.57;;
12367;SDS011;6248;49.812;6.620;2023-02-28T07:29:51;3.80;;;3.30;;
12367;SDS011;6248;49.812;6.620;2023-02-28T07:32:19;4.33;;;3.73;;
12367;SDS011;6248;49.812;6.620;2023-02-28T07:34:46;5.80;;;4.57;;
12367;SDS011;6248;49.812;6.620;2023-02-28T07:37:14;6.17;;;4.70;;
12367;SDS011;6248;49.812;6.620;2023-02-28T07:39:41;5.17;;;4.30;;
12367;SDS011;6248;49.812;6.620;2023-02-28T07:42:08;4.47;;;4.07;;
12367;SDS011;6248;49.812;6.620;2023-02-28T07:44:37;5.73;;;4.27;;
12367;SDS011;6248;49.812;6.620;2023-02-28T07:47:05;4.40;;;4.00;;
12367;SDS011;6248;49.812;6.620;2023-02-28T07:49:34;5.50;;;4.40;;
12367;SDS011;6248;49.812;6.620;2023-02-28T07:52:01;4.30;;;3.90;;
12367;SDS011;6248;49.812;6.620;2023-02-28T07:54:28;5.13;;;4.47;;
12367;SDS011;6248;49.812;6.620;2023-02-28T07:56:56;9.00;;;6.23;;
12367;SDS011;6248;49.812;6.620;2023-02-28T07:59:23;7.20;;;5.03;;
12367;SDS011;6248;49.812;6.620;2023-02-28T08:01:50;6.50;;;4.67;;
12367;SDS011;6248;49.812;6.620;2023-02-28T08:04:17;6.40;;;4.80;;
12367;SDS011;6248;49.812;6.620;2023-02-28T08:06:46;4.57;;;3.97;;
12367;SDS011;6248;49.812;6.620;2023-02-28T08:09:13;6.47;;;4.80;;
12367;SDS011;6248;49.812;6.620;2023-02-28T08:11:40;3.90;;;3.50;;
12367;SDS011;6248;49.812;6.620;2023-02-28T08:14:07;4.00;;;3.60;;
12367;SDS011;6248;49.812;6.620;2023-02-28T08:16:35;3.60;;;3.30;;
12367;SDS011;6248;49.812;6.620;2023-02-28T08:19:02;3.70;;;3.40;;
12367;SDS011;6248;49.812;6.620;2023-02-28T08:21:29;4.70;;;4.30;;
12367;SDS011;6248;49.812;6.620;2023-02-28T08:24:00;3.80;;;3.50;;
12367;SDS011;6248;49.812;6.620;2023-02-28T08:26:27;4.47;;;4.03;;
12367;SDS011;6248;49.812;6.620;2023-02-28T08:28:55;4.50;;;3.53;;
12367;SDS011;6248;49.812;6.620;2023-02-28T08:31:22;5.47;;;3.40;;
12367;SDS011;6248;49.812;6.620;2023-02-28T08:33:49;3.63;;;3.20;;
12367;SDS011;6248;49.812;6.620;2023-02-28T08:36:18;3.90;;;3.50;;
12367;SDS011;6248;49.812;6.620;2023-02-28T08:38:45;5.67;;;3.40;;
12367;SDS011;6248;49.812;6.620;2023-02-28T08:41:14;3.03;;;2.73;;
12367;SDS011;6248;49.812;6.620;2023-02-28T08:43:41;6.37;;;3.80;;
12367;SDS011;6248;49.812;6.620;2023-02-28T08:46:08;5.80;;;3.87;;
12367;SDS011;6248;49.812;6.620;2023-02-28T08:48:38;5.47;;;3.77;;
12367;SDS011;6248;49.812;6.620;2023-02-28T08:51:06;5.03;;;3.30;;
12367;SDS011;6248;49.812;6.620;2023-02-28T08:53:34;5.07;;;3.33;;
12367;SDS011;6248;49.812;6.620;2023-02-28T08:56:02;8.17;;;4.40;;
12367;SDS011;6248;49.812;6.620;2023-02-28T08:58:31;4.90;;;3.37;;
12367;SDS011;6248;49.812;6.620;2023-02-28T09:00:58;4.90;;;3.70;;
12367;SDS011;6248;49.812;6.620;2023-02-28T09:03:26;6.37;;;4.20;;
12367;SDS011;6248;49.812;6.620;2023-02-28T09:05:56;4.30;;;2.83;;
12367;SDS011;6248;49.812;6.620;2023-02-28T09:08:24;6.37;;;3.77;;
12367;SDS011;6248;49.812;6.620;2023-02-28T09:10:52;4.37;;;3.30;;
12367;SDS011;6248;49.812;6.620;2023-02-28T09:13:22;5.73;;;3.53;;
12367;SDS011;6248;49.812;6.620;2023-02-28T09:15:50;3.37;;;2.90;;
12367;SDS011;6248;49.812;6.620;2023-02-28T09:18:17;4.77;;;3.33;;
12367;SDS011;6248;49.812;6.620;2023-02-28T09:20:45;6.53;;;4.93;;
12367;SDS011;6248;49.812;6.620;2023-02-28T09:23:12;4.43;;;3.30;;
12367;SDS011;6248;49.812;6.620;2023-02-28T09:25:44;3.50;;;3.07;;
12367;SDS011;6248;49.812;6.620;2023-02-28T09:28:12;4.00;;;3.60;;
12367;SDS011;6248;49.812;6.620;2023-02-28T09:30:40;6.03;;;4.60;;
12367;SDS011;6248;49.812;6.620;2023-02-28T09:33:09;4.60;;;3.93;;
12367;SDS011;6248;49.812;6.620;2023-02-28T09:35:36;4.90;;;4.27;;
12367;SDS011;6248;49.812;6.620;2023-02-28T09:38:03;4.27;;;3.87;;
12367;SDS011;6248;49.812;6.620;2023-02-28T09:40:34;3.93;;;3.23;;
12367;SDS011;6248;49.812;6.620;2023-02-28T09:43:02;2.63;;;2.43;;
12367;SDS011;6248;49.812;6.620;2023-02-28T09:45:30;3.20;;;2.90;;
12367;SDS011;6248;49.812;6.620;2023-02-28T09:47:59;2.83;;;2.53;;
12367;SDS011;6248;49.812;6.620;2023-02-28T09:50:32;3.37;;;2.67;;
12367;SDS011;6248;49.812;6.620;2023-02-28T09:53:02;3.57;;;2.77;;
12367;SDS011;6248;49.812;6.620;2023-02-28T09:55:30;2.40;;;2.20;;
12367;SDS011;6248;49.812;6.620;2023-02-28T09:57:59;3.93;;;2.50;;
12367;SDS011;6248;49.812;6.620;2023-02-28T10:00:28;2.53;;;2.10;;
12367;SDS011;6248;49.812;6.620;2023-02-28T10:05:41;2.90;;;2.40;;
12367;SDS011;6248;49.812;6.620;2023-02-28T10:08:11;2.57;;;2.37;;
12367;SDS011;6248;49.812;6.620;2023-02-28T10:10:40;3.07;;;2.77;;
12367;SDS011;6248;49.812;6.620;2023-02-28T10:13:13;3.00;;;2.70;;
12367;SDS011;6248;49.812;6.620;2023-02-28T10:15:41;3.07;;;2.77;;
12367;SDS011;6248;49.812;6.620;2023-02-28T10:18:11;2.60;;;2.40;;
12367;SDS011;6248;49.812;6.620;2023-02-28T10:20:40;3.23;;;2.93;;
12367;SDS011;6248;49.812;6.620;2023-02-28T10:23:09;2.73;;;2.53;;
12367;SDS011;6248;49.812;6.620;2023-02-28T10:25:38;3.03;;;2.77;;
12367;SDS011;6248;49.812;6.620;2023-02-28T10:28:09;2.87;;;2.40;;
12367;SDS011;6248;49.812;6.620;2023-02-28T10:30:37;2.63;;;2.43;;
12367;SDS011;6248;49.812;6.620;2023-02-28T10:33:05;2.90;;;2.47;;
12367;SDS011;6248;49.812;6.620;2023-02-28T10:35:32;2.87;;;2.47;;
12367;SDS011;6248;49.812;6.620;2023-02-28T10:38:01;2.80;;;2.60;;
12367;SDS011;6248;49.812;6.620;2023-02-28T10:40:36;3.33;;;3.00;;
12367;SDS011;6248;49.812;6.620;2023-02-28T10:43:04;2.80;;;2.60;;
12367;SDS011;6248;49.812;6.620;2023-02-28T10:45:31;3.43;;;2.93;;
12367;SDS011;6248;49.812;6.620;2023-02-28T10:48:00;3.53;;;2.60;;
12367;SDS011;6248;49.812;6.620;2023-02-28T10:50:31;2.73;;;2.53;;
12367;SDS011;6248;49.812;6.620;2023-02-28T10:53:10;3.23;;;2.93;;
12367;SDS011;6248;49.812;6.620;2023-02-28T10:55:41;2.73;;;2.43;;
12367;SDS011;6248;49.812;6.620;2023-02-28T10:58:20;2.70;;;2.50;;
12367;SDS011;6248;49.812;6.620;2023-02-28T11:00:47;4.23;;;2.83;;
12367;SDS011;6248;49.812;6.620;2023-02-28T11:03:23;3.50;;;2.60;;
12367;SDS011;6248;49.812;6.620;2023-02-28T11:05:50;3.13;;;2.83;;
12367;SDS011;6248;49.812;6.620;2023-02-28T11:08:18;4.80;;;3.03;;
12367;SDS011;6248;49.812;6.620;2023-02-28T11:10:46;3.73;;;3.10;;
12367;SDS011;6248;49.812;6.620;2023-02-28T11:13:16;3.60;;;3.00;;
12367;SDS011;6248;49.812;6.620;2023-02-28T11:15:49;2.60;;;2.40;;
12367;SDS011;6248;49.812;6.620;2023-02-28T11:18:21;2.67;;;2.47;;
12367;SDS011;6248;49.812;6.620;2023-02-28T11:20:50;2.77;;;2.57;;
12367;SDS011;6248;49.812;6.620;2023-02-28T11:23:18;3.30;;;3.00;;
12367;SDS011;6248;49.812;6.620;2023-02-28T11:25:47;2.80;;;2.60;;
12367;SDS011;6248;49.812;6.620;2023-02-28T11:31:05;3.00;;;2.70;;
12367;SDS011;6248;49.812;6.620;2023-02-28T11:33:37;4.30;;;3.90;;
12367;SDS011;6248;49.812;6.620;2023-02-28T11:36:09;5.10;;;4.10;;
12367;SDS011;6248;49.812;6.620;2023-02-28T11:38:38;4.50;;;3.50;;
12367;SDS011;6248;49.812;6.620;2023-02-28T11:41:09;4.70;;;4.20;;
12367;SDS011;6248;49.812;6.620;2023-02-28T11:43:44;7.47;;;5.80;;
12367;SDS011;6248;49.812;6.620;2023-02-28T11:46:19;5.10;;;3.87;;
12367;SDS011;6248;49.812;6.620;2023-02-28T11:48:51;3.80;;;3.40;;
12367;SDS011;6248;49.812;6.620;2023-02-28T11:51:20;3.73;;;3.27;;
12367;SDS011;6248;49.812;6.620;2023-02-28T11:56:33;2.90;;;2.70;;
12367;SDS011;6248;49.812;6.620;2023-02-28T11:59:08;3.33;;;3.03;;
12367;SDS011;6248;49.812;6.620;2023-02-28T12:01:40;3.40;;;3.10;;
12367;SDS011;6248;49.812;6.620;2023-02-28T12:04:12;4.07;;;2.97;;
12367;SDS011;6248;49.812;6.620;2023-02-28T12:06:41;3.80;;;3.23;;
12367;SDS011;6248;49.812;6.620;2023-02-28T12:09:13;4.40;;;3.20;;
12367;SDS011;6248;49.812;6.620;2023-02-28T12:11:50;4.00;;;3.60;;
12367;SDS011;6248;49.812;6.620;2023-02-28T12:17:03;3.80;;;3.50;;
12367;SDS011;6248;49.812;6.620;2023-02-28T12:19:37;4.70;;;4.00;;
12367;SDS011;6248;49.812;6.620;2023-02-28T12:22:22;3.27;;;2.97;;
12367;SDS011;6248;49.812;6.620;2023-02-28T12:24:58;8.73;;;5.40;;
12367;SDS011;6248;49.812;6.620;2023-02-28T12:27:29;9.63;;;5.63;;
12367;SDS011;6248;49.812;6.620;2023-02-28T12:30:00;4.40;;;4.00;;
12367;SDS011;6248;49.812;6.620;2023-02-28T12:32:30;5.90;;;4.40;;
12367;SDS011;6248;49.812;6.620;2023-02-28T12:34:58;5.03;;;4.27;;
12367;SDS011;6248;49.812;6.620;2023-02-28T12:37:28;5.00;;;4.40;;
12367;SDS011;6248;49.812;6.620;2023-02-28T12:39:59;5.23;;;3.97;;
12367;SDS011;6248;49.812;6.620;2023-02-28T12:42:30;4.80;;;3.90;;
12367;SDS011;6248;49.812;6.620;2023-02-28T12:44:59;4.00;;;3.60;;
12367;SDS011;6248;49.812;6.620;2023-02-28T12:47:28;3.20;;;2.90;;
12367;SDS011;6248;49.812;6.620;2023-02-28T12:49:56;5.10;;;3.33;;
12367;SDS011;6248;49.812;6.620;2023-02-28T12:52:27;3.70;;;3.30;;
12367;SDS011;6248;49.812;6.620;2023-02-28T12:54:58;3.90;;;2.80;;
12367;SDS011;6248;49.812;6.620;2023-02-28T12:57:31;3.60;;;3.20;;
12367;SDS011;6248;49.812;6.620;2023-02-28T13:00:00;5.37;;;3.67;;
12367;SDS011;6248;49.812;6.620;2023-02-28T13:10:49;3.93;;;3.30;;
12367;SDS011;6248;49.812;6.620;2023-02-28T13:13:21;6.13;;;4.40;;
12367;SDS011;6248;49.812;6.620;2023-02-28T13:15:59;6.10;;;4.23;;
12367;SDS011;6248;49.812;6.620;2023-02-28T13:18:27;5.10;;;4.23;;
12367;SDS011;6248;49.812;6.620;2023-02-28T13:20:55;5.30;;;3.27;;
12367;SDS011;6248;49.812;6.620;2023-02-28T13:23:40;5.23;;;4.30;;
12367;SDS011;6248;49.812;6.620;2023-02-28T13:26:07;3.27;;;3.07;;
12367;SDS011;6248;49.812;6.620;2023-02-28T13:31:34;3.40;;;3.10;;
12367;SDS011;6248;49.812;6.620;2023-02-28T13:34:21;3.67;;;3.17;;
12367;SDS011;6248;49.812;6.620;2023-02-28T13:36:48;5.27;;;3.50;;
12367;SDS011;6248;49.812;6.620;2023-02-28T13:42:12;3.30;;;3.00;;
12367;SDS011;6248;49.812;6.620;2023-02-28T13:47:38;3.97;;;3.63;;
12367;SDS011;6248;49.812;6.620;2023-02-28T13:50:14;3.60;;;3.30;;
12367;SDS011;6248;49.812;6.620;2023-02-28T13:52:43;4.27;;;3.40;;
12367;SDS011;6248;49.812;6.620;2023-02-28T13:55:20;4.07;;;3.67;;
12367;SDS011;6248;49.812;6.620;2023-02-28T13:57:54;5.13;;;3.70;;
12367;SDS011;6248;49.812;6.620;2023-02-28T14:00:28;4.80;;;4.30;;
12367;SDS011;6248;49.812;6.620;2023-02-28T14:03:05;4.63;;;4.13;;
12367;SDS011;6248;49.812;6.620;2023-02-28T14:05:34;3.23;;;2.93;;
12367;SDS011;6248;49.812;6.620;2023-02-28T14:08:04;3.00;;;2.80;;
12367;SDS011;6248;49.812;6.620;2023-02-28T14:10:33;3.57;;;3.03;;
12367;SDS011;6248;49.812;6.620;2023-02-28T14:13:03;3.23;;;2.93;;
12367;SDS011;6248;49.812;6.620;2023-02-28T14:15:39;3.27;;;2.97;;
12367;SDS011;6248;49.812;6.620;2023-02-28T14:18:13;3.10;;;2.80;;
12367;SDS011;6248;49.812;6.620;2023-02-28T14:20:41;3.60;;;3.30;;
12367;SDS011;6248;49.812;6.620;2023-02-28T14:23:10;3.67;;;3.37;;
12367;SDS011;6248;49.812;6.620;2023-02-28T14:25:40;3.53;;;3.17;;
12367;SDS011;6248;49.812;6.620;2023-02-28T14:28:13;3.50;;;3.20;;
12367;SDS011;6248;49.812;6.620;2023-02-28T14:30:43;3.87;;;3.47;;
12367;SDS011;6248;49.812;6.620;2023-02-28T14:33:22;3.50;;;3.20;;
12367;SDS011;6248;49.812;6.620;2023-02-28T14:36:00;3.73;;;3.40;;
12367;SDS011;6248;49.812;6.620;2023-02-28T14:38:30;5.07;;;3.27;;
12367;SDS011;6248;49.812;6.620;2023-02-28T14:41:00;3.73;;;3.40;;
12367;SDS011;6248;49.812;6.620;2023-02-28T14:43:28;3.90;;;3.60;;
12367;SDS011;6248;49.812;6.620;2023-02-28T14:45:56;4.73;;;4.23;;
12367;SDS011;6248;49.812;6.620;2023-02-28T14:48:25;4.10;;;3.50;;
12367;SDS011;6248;49.812;6.620;2023-02-28T14:50:54;4.30;;;3.90;;
12367;SDS011;6248;49.812;6.620;2023-02-28T14:53:22;3.93;;;3.53;;
12367;SDS011;6248;49.812;6.620;2023-02-28T14:55:50;3.50;;;3.20;;
12367;SDS011;6248;49.812;6.620;2023-02-28T14:58:21;7.17;;;5.77;;
12367;SDS011;6248;49.812;6.620;2023-02-28T15:00:49;5.33;;;4.30;;
12367;SDS011;6248;49.812;6.620;2023-02-28T15:03:18;4.27;;;3.60;;
12367;SDS011;6248;49.812;6.620;2023-02-28T15:05:52;4.43;;;4.03;;
12367;SDS011;6248;49.812;6.620;2023-02-28T15:08:19;4.20;;;3.83;;
12367;SDS011;6248;49.812;6.620;2023-02-28T15:10:50;3.60;;;3.30;;
12367;SDS011;6248;49.812;6.620;2023-02-28T15:13:18;3.80;;;3.50;;
12367;SDS011;6248;49.812;6.620;2023-02-28T15:15:47;4.13;;;3.20;;
12367;SDS011;6248;49.812;6.620;2023-02-28T15:18:16;3.70;;;3.30;;
12367;SDS011;6248;49.812;6.620;2023-02-28T15:20:45;3.23;;;2.93;;
12367;SDS011;6248;49.812;6.620;2023-02-28T15:23:13;3.30;;;3.00;;
12367;SDS011;6248;49.812;6.620;2023-02-28T15:25:41;3.40;;;3.10;;
12367;SDS011;6248;49.812;6.620;2023-02-28T15:28:11;3.70;;;3.40;;
12367;SDS011;6248;49.812;6.620;2023-02-28T15:30:49;3.43;;;3.13;;
12367;SDS011;6248;49.812;6.620;2023-02-28T15:33:19;4.00;;;3.60;;
12367;SDS011;6248;49.812;6.620;2023-02-28T15:35:46;3.60;;;3.03;;
12367;SDS011;6248;49.812;6.620;2023-02-28T15:38:16;3.70;;;3.40;;
12367;SDS011;6248;49.812;6.620;2023-02-28T15:40:44;4.40;;;3.20;;
12367;SDS011;6248;49.812;6.620;2023-02-28T15:43:23;4.00;;;3.67;;
12367;SDS011;6248;49.812;6.620;2023-02-28T15:45:52;3.83;;;3.53;;
12367;SDS011;6248;49.812;6.620;2023-02-28T15:48:22;3.97;;;3.57;;
12367;SDS011;6248;49.812;6.620;2023-02-28T15:50:51;3.87;;;3.57;;
12367;SDS011;6248;49.812;6.620;2023-02-28T15:53:20;5.07;;;3.67;;
12367;SDS011;6248;49.812;6.620;2023-02-28T15:55:55;4.00;;;3.37;;
12367;SDS011;6248;49.812;6.620;2023-02-28T15:58:24;3.70;;;3.40;;
12367;SDS011;6248;49.812;6.620;2023-02-28T16:01:03;3.50;;;3.20;;
12367;SDS011;6248;49.812;6.620;2023-02-28T16:03:38;6.27;;;3.10;;
12367;SDS011;6248;49.812;6.620;2023-02-28T16:06:09;3.87;;;3.30;;
12367;SDS011;6248;49.812;6.620;2023-02-28T16:08:38;3.60;;;3.30;;
12367;SDS011;6248;49.812;6.620;2023-02-28T16:11:07;3.60;;;3.30;;
12367;SDS011;6248;49.812;6.620;2023-02-28T16:13:35;3.67;;;3.37;;
12367;SDS011;6248;49.812;6.620;2023-02-28T16:16:02;3.43;;;3.13;;
12367;SDS011;6248;49.812;6.620;2023-02-28T16:18:30;3.47;;;3.17;;
12367;SDS011;6248;49.812;6.620;2023-02-28T16:20:57;3.90;;;3.60;;
12367;SDS011;6248;49.812;6.620;2023-02-28T16:23:24;3.87;;;3.50;;
12367;SDS011;6248;49.812;6.620;2023-02-28T16:25:52;4.00;;;3.40;;
12367;SDS011;6248;49.812;6.620;2023-02-28T16:28:20;4.73;;;3.50;;
12367;SDS011;6248;49.812;6.620;2023-02-28T16:30:48;4.40;;;3.63;;
12367;SDS011;6248;49.812;6.620;2023-02-28T16:33:17;5.03;;;3.90;;
12367;SDS011;6248;49.812;6.620;2023-02-28T16:35:44;4.87;;;3.77;;
12367;SDS011;6248;49.812;6.620;2023-02-28T16:38:12;3.50;;;3.20;;
12367;SDS011;6248;49.812;6.620;2023-02-28T16:40:39;4.27;;;3.67;;
12367;SDS011;6248;49.812;6.620;2023-02-28T16:43:09;4.33;;;3.50;;
12367;SDS011;6248;49.812;6.620;2023-02-28T16:45:42;3.80;;;3.40;;
12367;SDS011;6248;49.812;6.620;2023-02-28T16:48:10;4.53;;;3.40;;
12367;SDS011;6248;49.812;6.620;2023-02-28T16:50:39;3.87;;;3.47;;
12367;SDS011;6248;49.812;6.620;2023-02-28T16:53:06;3.70;;;3.27;;
12367;SDS011;6248;49.812;6.620;2023-02-28T16:55:34;4.23;;;3.73;;
12367;SDS011;6248;49.812;6.620;2023-02-28T16:58:02;4.20;;;3.20;;
12367;SDS011;6248;49.812;6.620;2023-02-28T17:00:31;4.73;;;3.80;;
12367;SDS011;6248;49.812;6.620;2023-02-28T17:02:58;3.90;;;3.50;;
12367;SDS011;6248;49.812;6.620;2023-02-28T17:05:27;5.30;;;4.43;;
12367;SDS011;6248;49.812;6.620;2023-02-28T17:07:59;6.23;;;5.63;;
12367;SDS011;6248;49.812;6.620;2023-02-28T17:10:26;5.33;;;4.83;;
12367;SDS011;6248;49.812;6.620;2023-02-28T17:12:53;3.73;;;3.43;;
12367;SDS011;6248;49.812;6.620;2023-02-28T17:15:20;4.40;;;4.00;;
12367;SDS011;6248;49.812;6.620;2023-02-28T17:17:49;4.30;;;3.90;;
12367;SDS011;6248;49.812;6.620;2023-02-28T17:20:16;5.47;;;4.97;;
12367;SDS011;6248;49.812;6.620;2023-02-28T17:22:47;5.50;;;4.70;;
12367;SDS011;6248;49.812;6.620;2023-02-28T17:25:14;4.70;;;4.30;;
12367;SDS011;6248;49.812;6.620;2023-02-28T17:27:41;8.83;;;5.20;;
12367;SDS011;6248;49.812;6.620;2023-02-28T17:30:11;5.27;;;4.27;;
12367;SDS011;6248;49.812;6.620;2023-02-28T17:32:39;4.70;;;4.23;;
12367;SDS011;6248;49.812;6.620;2023-02-28T17:35:08;7.13;;;4.97;;
12367;SDS011;6248;49.812;6.620;2023-02-28T17:37:36;6.37;;;4.30;;
12367;SDS011;6248;49.812;6.620;2023-02-28T17:40:03;5.57;;;4.13;;
12367;SDS011;6248;49.812;6.620;2023-02-28T17:42:30;4.23;;;3.83;;
12367;SDS011;6248;49.812;6.620;2023-02-28T17:44:57;4.20;;;3.73;;
12367;SDS011;6248;49.812;6.620;2023-02-28T17:47:24;5.17;;;3.90;;
12367;SDS011;6248;49.812;6.620;2023-02-28T17:49:51;4.97;;;4.53;;
12367;SDS011;6248;49.812;6.620;2023-02-28T17:52:20;5.47;;;4.97;;
12367;SDS011;6248;49.812;6.620;2023-02-28T17:54:47;4.70;;;4.20;;
12367;SDS011;6248;49.812;6.620;2023-02-28T17:57:14;5.97;;;5.37;;
12367;SDS011;6248;49.812;6.620;2023-02-28T17:59:42;6.57;;;5.80;;
12367;SDS011;6248;49.812;6.620;2023-02-28T18:02:09;4.73;;;4.17;;
12367;SDS011;6248;49.812;6.620;2023-02-28T18:04:38;4.67;;;4.27;;
12367;SDS011;6248;49.812;6.620;2023-02-28T18:07:05;5.37;;;4.43;;
12367;SDS011;6248;49.812;6.620;2023-02-28T18:09:34;4.73;;;4.30;;
12367;SDS011;6248;49.812;6.620;2023-02-28T18:12:01;4.60;;;4.03;;
12367;SDS011;6248;49.812;6.620;2023-02-28T18:14:28;5.47;;;3.70;;
12367;SDS011;6248;49.812;6.620;2023-02-28T18:16:55;5.67;;;4.23;;
12367;SDS011;6248;49.812;6.620;2023-02-28T18:19:23;6.53;;;5.83;;
12367;SDS011;6248;49.812;6.620;2023-02-28T18:21:50;5.10;;;4.60;;
12367;SDS011;6248;49.812;6.620;2023-02-28T18:24:18;4.07;;;3.67;;
12367;SDS011;6248;49.812;6.620;2023-02-28T18:26:48;5.07;;;3.90;;
12367;SDS011;6248;49.812;6.620;2023-02-28T18:29:16;5.23;;;3.80;;
12367;SDS011;6248;49.812;6.620;2023-02-28T18:31:44;4.90;;;4.50;;
12367;SDS011;6248;49.812;6.620;2023-02-28T18:34:11;4.50;;;4.10;;
12367;SDS011;6248;49.812;6.620;2023-02-28T18:36:39;4.63;;;4.10;;
12367;SDS011;6248;49.812;6.620;2023-02-28T18:39:07;4.57;;;4.17;;
12367;SDS011;6248;49.812;6.620;2023-02-28T18:41:36;4.63;;;3.90;;